createdAt,value
2018-04-28T00:01:44.467Z,98265.54
2018-04-28T00:04:12.583Z,98272.34
2018-04-28T00:06:40.709Z,98272.61
2018-04-28T00:09:08.829Z,98261.65
2018-04-28T00:11:36.967Z,98266.97
2018-04-28T00:14:05.097Z,98265.48
2018-04-28T00:16:44.860Z,98262.53
2018-04-28T00:19:12.986Z,98263.97
2018-04-28T00:21:52.501Z,98265.42
2018-04-28T00:24:26.510Z,98269.81
2018-04-28T00:27:02.320Z,98277.11
2018-04-28T00:29:30.486Z,98278.18
2018-04-28T00:31:58.626Z,98278.13
2018-04-28T00:34:27.521Z,98284.67
2018-04-28T00:37:01.149Z,98280.53
2018-04-28T00:39:29.297Z,98278.78
2018-04-28T00:41:58.198Z,98284.38
2018-04-28T00:44:36.255Z,98290.04
2018-04-28T00:47:15.094Z,98287.46
2018-04-28T00:49:44.139Z,98285.98
2018-04-28T00:52:12.276Z,98284.98
2018-04-28T00:54:41.156Z,98286.56
2018-04-28T00:57:28.231Z,98290.16
2018-04-28T00:59:58.016Z,98287.73
2018-04-28T01:02:27.054Z,98292.30
2018-04-28T01:04:55.180Z,98294.13
2018-04-28T01:07:24.110Z,98295.28
2018-04-28T01:10:00.724Z,98303.53
2018-04-28T01:12:32.618Z,98304.53
2018-04-28T01:15:20.484Z,98307.02
2018-04-28T01:17:53.564Z,98308.91
2018-04-28T01:20:30.653Z,98315.69
2018-04-28T01:23:07.808Z,98310.33
2018-04-28T01:25:41.693Z,98311.13
2018-04-28T01:28:11.734Z,98314.02
2018-04-28T01:30:41.659Z,98313.41
2018-04-28T01:33:09.899Z,98314.82
2018-04-28T01:35:52.899Z,98309.06
2018-04-28T01:38:21.032Z,98316.63
2018-04-28T01:40:49.140Z,98329.67
2018-04-28T01:43:18.070Z,98332.86
2018-04-28T01:45:48.139Z,98336.45
2018-04-28T01:48:21.029Z,98330.45
2018-04-28T01:50:55.843Z,98337.76
2018-04-28T01:53:46.544Z,98333.21
2018-04-28T01:56:17.183Z,98338.25
2018-04-28T01:58:46.013Z,98341.44
2018-04-28T02:01:17.092Z,98339.44
2018-04-28T02:03:47.010Z,98350.31
2018-04-28T02:06:21.029Z,98350.66
2018-04-28T02:08:50.022Z,98351.12
2018-04-28T02:11:40.757Z,98359.88
2018-04-28T02:14:17.745Z,98352.00
2018-04-28T02:16:52.729Z,98359.94
2018-04-28T02:19:34.706Z,98360.98
2018-04-28T02:22:27.800Z,98366.83
2018-04-28T02:25:06.920Z,98364.31
2018-04-28T02:27:41.609Z,98362.83
2018-04-28T02:30:10.466Z,98364.31
2018-04-28T02:35:51.551Z,98366.12
2018-04-28T02:38:19.661Z,98369.31
2018-04-28T02:40:59.595Z,98367.95
2018-04-28T02:46:47.273Z,98372.14
2018-04-28T02:49:17.346Z,98367.48
2018-04-28T02:51:46.414Z,98379.88
2018-04-28T02:54:18.179Z,98372.41
2018-04-28T03:00:06.296Z,98376.05
2018-04-28T03:02:35.095Z,98382.18
2018-04-28T03:08:09.465Z,98381.22
2018-04-28T03:10:43.371Z,98382.20
2018-04-28T03:13:20.382Z,98390.59
2018-04-28T03:15:50.415Z,98385.98
2018-04-28T03:18:18.535Z,98387.39
2018-04-28T03:20:46.659Z,98390.02
2018-04-28T03:23:33.608Z,98393.50
2018-04-28T03:26:01.738Z,98400.27
2018-04-28T03:28:33.291Z,98392.73
2018-04-28T03:31:05.180Z,98391.58
2018-04-28T03:33:37.035Z,98401.30
2018-04-28T03:39:16.847Z,98406.03
2018-04-28T03:41:47.714Z,98405.77
2018-04-28T03:44:16.562Z,98407.21
2018-04-28T03:46:45.615Z,98407.33
2018-04-28T03:49:28.613Z,98405.59
2018-04-28T03:52:01.251Z,98407.47
2018-04-28T03:54:35.115Z,98411.28
2018-04-28T03:57:07.906Z,98406.66
2018-04-28T03:59:47.920Z,98412.12
2018-04-28T04:05:56.414Z,98410.27
2018-04-28T04:08:32.932Z,98417.22
2018-04-28T04:11:06.903Z,98422.95
2018-04-28T04:13:41.762Z,98431.16
2018-04-28T04:16:13.501Z,98423.03
2018-04-28T04:18:52.234Z,98426.77
2018-04-28T04:21:23.037Z,98431.86
2018-04-28T04:24:01.893Z,98430.16
2018-04-28T04:29:52.389Z,98432.45
2018-04-28T04:32:24.368Z,98442.47
2018-04-28T04:37:54.490Z,98445.94
2018-04-28T04:43:44.988Z,98456.25
2018-04-28T04:46:21.057Z,98456.64
2018-04-28T04:49:09.075Z,98460.70
2018-04-28T04:51:43.840Z,98456.23
2018-04-28T04:54:26.851Z,98457.53
2018-04-28T05:00:09.912Z,98460.97
2018-04-28T05:02:44.806Z,98463.14
2018-04-28T05:05:31.478Z,98464.08
2018-04-28T05:08:08.261Z,98472.13
2018-04-28T05:10:48.187Z,98464.27
2018-04-28T05:16:21.024Z,98467.05
2018-04-28T05:18:58.461Z,98472.50
2018-04-28T05:21:32.152Z,98476.88
2018-04-28T05:27:15.680Z,98476.91
2018-04-28T05:29:46.613Z,98482.11
2018-04-28T05:32:22.610Z,98482.95
2018-04-28T05:38:16.092Z,98479.67
2018-04-28T05:43:41.952Z,98486.76
2018-04-28T05:46:26.680Z,98491.86
2018-04-28T05:52:03.479Z,98492.25
2018-04-28T05:58:04.202Z,98492.33
2018-04-28T06:00:49.002Z,98499.31
2018-04-28T06:03:28.799Z,98498.84
2018-04-28T06:09:18.610Z,98506.62
2018-04-28T06:15:24.837Z,98512.17
2018-04-28T06:18:03.834Z,98511.67
2018-04-28T06:20:38.637Z,98509.78
2018-04-28T06:23:06.937Z,98508.44
2018-04-28T06:25:35.075Z,98515.42
2018-04-28T06:28:03.197Z,98508.81
2018-04-28T06:30:31.329Z,98506.69
2018-04-28T06:33:00.589Z,98506.42
2018-04-28T06:35:28.726Z,98503.30
2018-04-28T06:37:56.878Z,98511.19
2018-04-28T06:40:25.006Z,98511.43
2018-04-28T06:42:53.133Z,98511.09
2018-04-28T06:45:21.292Z,98516.30
2018-04-28T06:47:49.408Z,98518.54
2018-04-28T06:50:17.546Z,98514.20
2018-04-28T06:52:45.785Z,98506.34
2018-04-28T06:55:13.921Z,98510.05
2018-04-28T06:57:42.052Z,98507.76
2018-04-28T07:00:10.216Z,98507.55
2018-04-28T07:02:38.344Z,98515.42
2018-04-28T07:05:06.543Z,98507.56
2018-04-28T07:07:34.686Z,98507.84
2018-04-28T07:10:02.833Z,98513.50
2018-04-28T07:12:30.962Z,98507.12
2018-04-28T07:14:59.127Z,98502.81
2018-04-28T07:17:27.251Z,98505.94
2018-04-28T07:19:55.373Z,98509.32
2018-04-28T07:22:23.520Z,98514.34
2018-04-28T07:24:52.302Z,98509.55
2018-04-28T07:27:20.432Z,98508.81
2018-04-28T07:29:48.594Z,98511.98
2018-04-28T07:32:16.719Z,98514.50
2018-04-28T07:34:44.853Z,98508.00
2018-04-28T07:37:12.993Z,98510.33
2018-04-28T07:39:41.121Z,98516.92
2018-04-28T07:42:09.264Z,98515.20
2018-04-28T07:44:37.565Z,98512.75
2018-04-28T07:47:05.774Z,98511.12
2018-04-28T07:49:33.914Z,98509.19
2018-04-28T07:52:02.071Z,98507.50
2018-04-28T07:54:30.217Z,98515.72
2018-04-28T07:56:58.347Z,98511.42
2018-04-28T07:59:26.629Z,98502.75
2018-04-28T08:01:54.760Z,98510.98
2018-04-28T08:04:22.888Z,98501.06
2018-04-28T08:06:51.056Z,98500.06
2018-04-28T08:09:19.227Z,98494.57
2018-04-28T08:11:47.359Z,98494.90
2018-04-28T08:14:15.496Z,98493.67
2018-04-28T08:16:43.619Z,98491.95
2018-04-28T08:19:11.761Z,98491.69
2018-04-28T08:21:39.931Z,98496.79
2018-04-28T08:24:08.080Z,98486.89
2018-04-28T08:26:37.025Z,98492.13
2018-04-28T08:29:05.191Z,98490.83
2018-04-28T08:31:33.370Z,98483.84
2018-04-28T08:34:01.488Z,98483.62
2018-04-28T08:36:29.623Z,98475.69
2018-04-28T08:38:57.772Z,98480.05
2018-04-28T08:41:25.928Z,98482.53
2018-04-28T08:43:54.079Z,98482.75
2018-04-28T08:46:22.225Z,98486.08
2018-04-28T08:48:50.365Z,98485.64
2018-04-28T08:51:18.515Z,98484.33
2018-04-28T08:53:46.638Z,98479.89
2018-04-28T08:56:14.769Z,98487.22
2018-04-28T08:58:42.916Z,98479.70
2018-04-28T09:01:11.053Z,98482.89
2018-04-28T09:03:39.247Z,98480.84
2018-04-28T09:06:07.326Z,98475.08
2018-04-28T09:08:35.479Z,98484.33
2018-04-28T09:11:03.710Z,98476.99
2018-04-28T09:13:31.850Z,98480.27
2018-04-28T09:15:59.977Z,98477.08
2018-04-28T09:18:28.101Z,98471.45
2018-04-28T09:20:59.095Z,98473.78
2018-04-28T09:23:27.220Z,98466.44
2018-04-28T09:25:55.385Z,98462.28
2018-04-28T09:28:23.517Z,98456.72
2018-04-28T09:30:51.642Z,98457.02
2018-04-28T09:33:19.797Z,98450.06
2018-04-28T09:35:47.953Z,98456.84
2018-04-28T09:38:16.092Z,98454.17
2018-04-28T09:40:44.219Z,98452.38
2018-04-28T09:43:12.363Z,98455.91
2018-04-28T09:45:40.504Z,98453.42
2018-04-28T09:48:08.655Z,98449.44
2018-04-28T09:50:36.793Z,98453.51
2018-04-28T09:53:04.937Z,98445.92
2018-04-28T09:55:33.097Z,98442.48
2018-04-28T09:58:06.166Z,98438.63
2018-04-28T10:00:39.805Z,98434.27
2018-04-28T10:03:07.969Z,98433.63
2018-04-28T10:05:36.096Z,98426.27
2018-04-28T10:08:04.230Z,98425.02
2018-04-28T10:10:32.462Z,98425.17
2018-04-28T10:13:00.627Z,98422.17
2018-04-28T10:15:28.759Z,98421.40
2018-04-28T10:17:56.915Z,98418.12
2018-04-28T10:20:25.096Z,98412.90
2018-04-28T10:22:53.177Z,98403.47
2018-04-28T10:25:21.330Z,98398.90
2018-04-28T10:27:49.455Z,98394.59
2018-04-28T10:30:17.607Z,98394.41
2018-04-28T10:32:45.730Z,98384.77
2018-04-28T10:35:13.874Z,98380.58
2018-04-28T10:37:42.025Z,98371.21
2018-04-28T10:40:10.157Z,98375.55
2018-04-28T10:42:38.304Z,98370.95
2018-04-28T10:45:06.538Z,98369.94
2018-04-28T10:47:34.711Z,98370.17
2018-04-28T10:50:02.813Z,98365.31
2018-04-28T10:52:30.945Z,98356.38
2018-04-28T10:54:59.078Z,98345.36
2018-04-28T10:57:27.198Z,98344.19
2018-04-28T10:59:55.836Z,98345.74
2018-04-28T11:02:23.986Z,98337.27
2018-04-28T11:04:52.125Z,98326.77
2018-04-28T11:07:20.265Z,98325.97
2018-04-28T11:09:48.431Z,98325.42
2018-04-28T11:12:16.652Z,98312.57
2018-04-28T11:14:44.832Z,98305.71
2018-04-28T11:17:13.003Z,98309.97
2018-04-28T11:19:41.150Z,98294.22
2018-04-28T11:22:09.283Z,98292.13
2018-04-28T11:24:37.427Z,98285.74
2018-04-28T11:27:05.607Z,98278.37
2018-04-28T11:29:33.731Z,98286.22
2018-04-28T11:32:01.879Z,98283.25
2018-04-28T11:34:30.020Z,98280.73
2018-04-28T11:36:58.139Z,98278.83
2018-04-28T11:39:26.297Z,98270.25
2018-04-28T11:41:54.423Z,98260.38
2018-04-28T11:44:22.547Z,98261.83
2018-04-28T11:46:50.731Z,98256.16
2018-04-28T11:49:18.863Z,98257.72
2018-04-28T11:51:47.005Z,98252.46
2018-04-28T11:54:15.146Z,98243.58
2018-04-28T11:56:43.298Z,98239.88
2018-04-28T11:59:11.433Z,98238.52
2018-04-28T12:01:39.565Z,98244.25
2018-04-28T12:04:07.694Z,98241.94
2018-04-28T12:06:35.834Z,98241.48
2018-04-28T12:09:03.969Z,98229.40
2018-04-28T12:11:32.169Z,98236.27
2018-04-28T12:14:00.275Z,98227.72
2018-04-28T12:16:28.407Z,98226.02
2018-04-28T12:18:56.563Z,98225.48
2018-04-28T12:21:24.687Z,98226.81
2018-04-28T12:23:52.818Z,98215.63
2018-04-28T12:26:20.957Z,98217.14
2018-04-28T12:28:49.109Z,98217.33
2018-04-28T12:31:17.258Z,98208.42
2018-04-28T12:33:45.391Z,98207.41
2018-04-28T12:36:13.508Z,98203.88
2018-04-28T12:38:41.673Z,98208.55
2018-04-28T12:41:10.279Z,98205.58
2018-04-28T12:43:38.405Z,98196.69
2018-04-28T12:46:06.577Z,98197.20
2018-04-28T12:48:34.689Z,98191.62
2018-04-28T12:51:02.839Z,98190.96
2018-04-28T12:53:30.985Z,98193.13
2018-04-28T12:55:59.122Z,98193.22
2018-04-28T12:58:27.253Z,98196.80
2018-04-28T13:00:55.377Z,98188.95
2018-04-28T13:03:23.501Z,98185.45
2018-04-28T13:05:51.628Z,98190.11
2018-04-28T13:08:19.763Z,98180.98
2018-04-28T13:10:47.921Z,98174.41
2018-04-28T13:13:16.050Z,98169.56
2018-04-28T13:15:44.293Z,98172.47
2018-04-28T13:18:12.389Z,98168.51
2018-04-28T13:20:40.510Z,98157.84
2018-04-28T13:23:08.666Z,98158.94
2018-04-28T13:25:36.796Z,98154.85
2018-04-28T13:28:04.923Z,98148.98
2018-04-28T13:30:33.041Z,98146.06
2018-04-28T13:33:01.190Z,98144.50
2018-04-28T13:35:29.306Z,98150.50
2018-04-28T13:37:57.429Z,98144.23
2018-04-28T13:40:25.550Z,98136.03
2018-04-28T13:42:53.818Z,98134.83
2018-04-28T13:45:22.459Z,98134.02
2018-04-28T13:47:50.598Z,98136.13
2018-04-28T13:50:18.813Z,98125.03
2018-04-28T13:52:46.949Z,98125.27
2018-04-28T13:55:15.081Z,98128.59
2018-04-28T13:57:43.198Z,98116.94
2018-04-28T14:00:11.354Z,98106.80
2018-04-28T14:02:39.478Z,98109.20
2018-04-28T14:05:07.612Z,98104.69
2018-04-28T14:07:35.751Z,98106.03
2018-04-28T14:10:03.959Z,98103.77
2018-04-28T14:12:32.103Z,98102.92
2018-04-28T14:15:00.228Z,98096.41
2018-04-28T14:17:28.361Z,98091.67
2018-04-28T14:19:56.479Z,98092.47
2018-04-28T14:22:24.632Z,98098.09
2018-04-28T14:24:52.762Z,98083.70
2018-04-28T14:27:20.970Z,98081.39
2018-04-28T14:29:49.028Z,98096.52
2018-04-28T14:32:17.162Z,98074.77
2018-04-28T14:34:45.296Z,98067.43
2018-04-28T14:37:13.411Z,98077.25
2018-04-28T14:42:15.842Z,98066.92
2018-04-28T14:44:43.981Z,98069.25
2018-04-28T14:47:12.134Z,98062.64
2018-04-28T14:49:40.268Z,98061.23
2018-04-28T14:52:08.401Z,98052.91
2018-04-28T14:54:36.507Z,98046.86
2018-04-28T14:57:04.637Z,98049.55
2018-04-28T14:59:32.799Z,98049.31
2018-04-28T15:02:00.938Z,98039.86
2018-04-28T15:04:29.223Z,98041.17
2018-04-28T15:06:57.362Z,98046.70
2018-04-28T15:09:25.490Z,98036.63
2018-04-28T15:11:53.626Z,98037.00
2018-04-28T15:14:21.821Z,98034.41
2018-04-28T15:16:49.965Z,98032.55
2018-04-28T15:19:18.117Z,98024.75
2018-04-28T15:21:46.237Z,98021.38
2018-04-28T15:24:14.363Z,98017.52
2018-04-28T15:26:42.498Z,98027.41
2018-04-28T15:29:10.679Z,98017.94
2018-04-28T15:31:38.860Z,98015.75
2018-04-28T15:34:06.969Z,98014.72
2018-04-28T15:36:35.110Z,98009.75
2018-04-28T15:39:03.240Z,98013.56
2018-04-28T15:41:31.387Z,98015.09
2018-04-28T15:43:59.541Z,98005.84
2018-04-28T15:46:27.659Z,98014.59
2018-04-28T15:48:55.789Z,98002.77
2018-04-28T15:51:23.921Z,98000.62
2018-04-28T15:53:52.061Z,97997.13
2018-04-28T15:56:20.187Z,97996.63
2018-04-28T15:58:48.324Z,97985.75
2018-04-28T16:01:16.458Z,97988.11
2018-04-28T16:03:44.578Z,97983.27
2018-04-28T16:06:12.707Z,97986.04
2018-04-28T16:08:40.839Z,97982.37
2018-04-28T16:11:10.043Z,97985.58
2018-04-28T16:13:38.170Z,97984.44
2018-04-28T16:16:06.286Z,97980.91
2018-04-28T16:18:34.430Z,97976.66
2018-04-28T16:21:02.550Z,97972.19
2018-04-28T16:23:30.677Z,97975.17
2018-04-28T16:25:58.823Z,97976.77
2018-04-28T16:28:26.991Z,97976.84
2018-04-28T16:30:55.095Z,97972.88
2018-04-28T16:33:23.226Z,97973.55
2018-04-28T16:35:51.379Z,97968.48
2018-04-28T16:38:19.495Z,97958.42
2018-04-28T16:40:47.618Z,97959.70
2018-04-28T16:43:15.742Z,97965.56
2018-04-28T16:45:43.878Z,97957.23
2018-04-28T16:48:12.006Z,97957.97
2018-04-28T16:50:40.156Z,97959.37
2018-04-28T16:53:08.291Z,97965.42
2018-04-28T16:55:37.860Z,97969.48
2018-04-28T16:58:06.062Z,97969.17
2018-04-28T17:00:34.196Z,97964.67
2018-04-28T17:03:02.335Z,97966.50
2018-04-28T17:05:30.478Z,97971.23
2018-04-28T17:07:58.603Z,97973.53
2018-04-28T17:10:26.790Z,97969.49
2018-04-28T17:12:54.920Z,97969.55
2018-04-28T17:15:23.053Z,97969.51
2018-04-28T17:17:54.726Z,97965.34
2018-04-28T17:20:22.858Z,97968.97
2018-04-28T17:22:50.994Z,97966.76
2018-04-28T17:25:19.166Z,97967.79
2018-04-28T17:27:46.716Z,97967.02
2018-04-28T17:30:14.870Z,97969.32
2018-04-28T17:32:43.027Z,97971.86
2018-04-28T17:35:11.147Z,97971.33
2018-04-28T17:37:39.304Z,97977.55
2018-04-28T17:40:07.435Z,97971.53
2018-04-28T17:42:35.549Z,97971.17
2018-04-28T17:45:03.692Z,97971.53
2018-04-28T17:47:31.958Z,97972.70
2018-04-28T17:50:00.089Z,97975.28
2018-04-28T17:52:28.223Z,97973.52
2018-04-28T17:54:56.377Z,97975.25
2018-04-28T17:57:24.527Z,97977.86
2018-04-28T17:59:52.636Z,97980.31
2018-04-28T18:02:20.793Z,97985.61
2018-04-28T18:04:48.933Z,97980.25
2018-04-28T18:07:17.164Z,97985.26
2018-04-28T18:09:45.206Z,97982.94
2018-04-28T18:12:13.352Z,97988.20
2018-04-28T18:14:41.526Z,97981.89
2018-04-28T18:17:10.749Z,97991.14
2018-04-28T18:19:38.880Z,97987.98
2018-04-28T18:22:06.993Z,97988.81
2018-04-28T18:24:35.153Z,97993.91
2018-04-28T18:27:03.328Z,98002.13
2018-04-28T18:29:31.496Z,98002.32
2018-04-28T18:31:59.635Z,98004.37
2018-04-28T18:34:27.879Z,98005.25
2018-04-28T18:36:56.017Z,98000.30
2018-04-28T18:39:24.178Z,98008.34
2018-04-28T18:41:52.298Z,98008.43
2018-04-28T18:44:20.430Z,98007.95
2018-04-28T18:46:48.570Z,98009.64
2018-04-28T18:49:16.712Z,97996.45
2018-04-28T18:51:44.963Z,98008.86
2018-04-28T18:54:13.041Z,98007.47
2018-04-28T18:56:41.162Z,98009.55
2018-04-28T18:59:09.279Z,98010.06
2018-04-28T19:01:37.581Z,98011.58
2018-04-28T19:04:05.695Z,98014.30
2018-04-28T19:06:33.812Z,98013.39
2018-04-28T19:09:01.966Z,98017.38
2018-04-28T19:11:30.101Z,98021.56
2018-04-28T19:13:58.238Z,98026.55
2018-04-28T19:16:26.388Z,98020.30
2018-04-28T19:18:54.520Z,98032.31
2018-04-28T19:21:22.643Z,98029.18
2018-04-28T19:23:50.815Z,98030.34
2018-04-28T19:26:18.945Z,98034.98
2018-04-28T19:28:47.083Z,98030.42
2018-04-28T19:31:15.480Z,98038.02
2018-04-28T19:33:43.610Z,98031.36
2018-04-28T19:36:11.766Z,98037.83
2018-04-28T19:38:39.972Z,98036.95
2018-04-28T19:41:08.126Z,98040.63
2018-04-28T19:43:36.270Z,98036.50
2018-04-28T19:46:04.442Z,98036.95
2018-04-28T19:48:32.601Z,98036.77
2018-04-28T19:51:00.717Z,98035.42
2018-04-28T19:53:28.871Z,98037.30
2018-04-28T19:55:57.005Z,98038.56
2018-04-28T19:58:25.130Z,98041.58
2018-04-28T20:00:53.419Z,98039.00
2018-04-28T20:03:21.563Z,98043.88
2018-04-28T20:05:49.692Z,98043.91
2018-04-28T20:08:17.971Z,98038.47
2018-04-28T20:10:46.101Z,98039.70
2018-04-28T20:13:14.223Z,98042.95
2018-04-28T20:15:42.409Z,98040.88
2018-04-28T20:18:10.535Z,98049.70
2018-04-28T20:20:38.671Z,98042.58
2018-04-28T20:23:18.756Z,98054.07
2018-04-28T20:25:46.893Z,98045.95
2018-04-28T20:28:15.026Z,98051.38
2018-04-28T20:30:43.183Z,98050.16
2018-04-28T20:33:11.330Z,98042.94
2018-04-28T20:35:39.464Z,98039.25
2018-04-28T20:38:07.739Z,98044.20
2018-04-28T20:40:35.907Z,98049.02
2018-04-28T20:43:04.035Z,98054.66
2018-04-28T20:45:32.203Z,98060.64
2018-04-28T20:48:00.367Z,98061.30
2018-04-28T20:50:28.502Z,98065.06
2018-04-28T20:52:56.666Z,98068.22
2018-04-28T20:55:24.798Z,98071.52
2018-04-28T20:57:52.934Z,98067.30
2018-04-28T21:00:21.095Z,98068.91
2018-04-28T21:02:49.231Z,98078.34
2018-04-28T21:05:17.373Z,98078.91
2018-04-28T21:07:45.631Z,98076.91
2018-04-28T21:10:13.771Z,98073.89
2018-04-28T21:12:41.908Z,98077.86
2018-04-28T21:15:10.090Z,98081.67
2018-04-28T21:17:38.213Z,98076.33
2018-04-28T21:20:07.234Z,98077.82
2018-04-28T21:22:35.413Z,98073.66
2018-04-28T21:25:03.572Z,98078.56
2018-04-28T21:27:31.701Z,98080.09
2018-04-28T21:29:59.845Z,98082.84
2018-04-28T21:32:27.986Z,98083.03
2018-04-28T21:34:56.113Z,98081.59
2018-04-28T21:37:24.280Z,98085.68
2018-04-28T21:39:52.405Z,98087.58
2018-04-28T21:42:20.544Z,98084.65
2018-04-28T21:44:48.814Z,98082.19
2018-04-28T21:47:16.952Z,98082.35
2018-04-28T21:49:45.091Z,98078.67
2018-04-28T21:52:13.243Z,98078.38
2018-04-28T21:54:41.361Z,98079.55
2018-04-28T21:57:09.609Z,98079.00
2018-04-28T21:59:37.769Z,98076.92
2018-04-28T22:02:05.901Z,98080.52
2018-04-28T22:04:34.026Z,98085.19
2018-04-28T22:07:02.212Z,98076.42
2018-04-28T22:09:30.333Z,98081.20
2018-04-28T22:11:58.465Z,98081.20
2018-04-28T22:14:26.633Z,98081.16
2018-04-28T22:16:54.749Z,98081.06
2018-04-28T22:19:22.895Z,98082.84
2018-04-28T22:21:51.160Z,98078.41
2018-04-28T22:24:19.295Z,98073.89
2018-04-28T22:26:47.419Z,98066.81
2018-04-28T22:29:15.590Z,98064.29
2018-04-28T22:31:43.710Z,98065.05
2018-04-28T22:34:13.034Z,98071.82
2018-04-28T22:36:41.195Z,98068.20
2018-04-28T22:39:09.767Z,98068.69
2018-04-28T22:41:37.885Z,98062.28
2018-04-28T22:44:06.084Z,98070.90
2018-04-28T22:46:34.205Z,98058.79
2018-04-28T22:49:02.341Z,98071.30
2018-04-28T22:51:30.479Z,98065.34
2018-04-28T22:53:58.623Z,98066.18
2018-04-28T22:56:26.757Z,98066.05
2018-04-28T22:58:54.906Z,98064.30
2018-04-28T23:01:23.035Z,98061.96
2018-04-28T23:03:51.149Z,98064.53
2018-04-28T23:06:19.435Z,98059.92
2018-04-28T23:08:47.565Z,98058.52
2018-04-28T23:11:15.701Z,98062.45
2018-04-28T23:13:43.862Z,98061.55
2018-04-28T23:16:11.994Z,98064.67
2018-04-28T23:18:40.130Z,98062.66
2018-04-28T23:21:08.298Z,98063.23
2018-04-28T23:23:36.436Z,98066.44
2018-04-28T23:26:04.584Z,98061.68
2018-04-28T23:28:32.727Z,98060.88
2018-04-28T23:31:00.871Z,98057.25
2018-04-28T23:33:28.985Z,98065.14
2018-04-28T23:35:57.143Z,98056.08
2018-04-28T23:38:25.286Z,98057.95
2018-04-28T23:40:53.414Z,98062.69
2018-04-28T23:43:21.711Z,98057.73
2018-04-28T23:45:49.843Z,98046.38
2018-04-28T23:48:17.971Z,98041.79
2018-04-28T23:50:46.132Z,98041.02
2018-04-28T23:53:14.263Z,98036.63
2018-04-28T23:55:42.405Z,98033.67
2018-04-28T23:58:10.540Z,98030.25
